sensor_id;sensor_type;location;lat;lon;timestamp;P1;durP1;ratioP1;P2;durP2;ratioP2
12719;SDS011;6424;48.520;11.228;2024-02-23T00:00:53;0.40;;;0.30;;
12719;SDS011;6424;48.520;11.228;2024-02-23T00:03:38;0.50;;;0.37;;
12719;SDS011;6424;48.520;11.228;2024-02-23T00:06:22;1.00;;;0.40;;
12719;SDS011;6424;48.520;11.228;2024-02-23T00:09:11;0.40;;;0.20;;
12719;SDS011;6424;48.520;11.228;2024-02-23T00:11:55;0.93;;;0.20;;
12719;SDS011;6424;48.520;11.228;2024-02-23T00:14:40;1.10;;;0.33;;
12719;SDS011;6424;48.520;11.228;2024-02-23T00:17:24;0.70;;;0.30;;
12719;SDS011;6424;48.520;11.228;2024-02-23T00:20:08;0.40;;;0.30;;
12719;SDS011;6424;48.520;11.228;2024-02-23T00:22:58;0.30;;;0.27;;
12719;SDS011;6424;48.520;11.228;2024-02-23T00:25:42;0.50;;;0.40;;
12719;SDS011;6424;48.520;11.228;2024-02-23T00:28:26;0.40;;;0.30;;
12719;SDS011;6424;48.520;11.228;2024-02-23T00:31:10;0.50;;;0.30;;
12719;SDS011;6424;48.520;11.228;2024-02-23T00:33:54;0.40;;;0.30;;
12719;SDS011;6424;48.520;11.228;2024-02-23T00:36:39;1.00;;;0.67;;
12719;SDS011;6424;48.520;11.228;2024-02-23T00:39:24;0.40;;;0.17;;
12719;SDS011;6424;48.520;11.228;2024-02-23T00:42:08;0.30;;;0.30;;
12719;SDS011;6424;48.520;11.228;2024-02-23T00:44:52;1.43;;;0.30;;
12719;SDS011;6424;48.520;11.228;2024-02-23T00:47:37;0.53;;;0.30;;
12719;SDS011;6424;48.520;11.228;2024-02-23T00:50:21;0.60;;;0.27;;
12719;SDS011;6424;48.520;11.228;2024-02-23T00:53:07;0.47;;;0.27;;
12719;SDS011;6424;48.520;11.228;2024-02-23T00:55:51;1.27;;;0.40;;
12719;SDS011;6424;48.520;11.228;2024-02-23T00:58:35;0.70;;;0.30;;
12719;SDS011;6424;48.520;11.228;2024-02-23T01:01:19;0.40;;;0.20;;
12719;SDS011;6424;48.520;11.228;2024-02-23T01:04:03;0.30;;;0.20;;
12719;SDS011;6424;48.520;11.228;2024-02-23T01:06:47;0.50;;;0.20;;
12719;SDS011;6424;48.520;11.228;2024-02-23T01:09:31;0.40;;;0.20;;
12719;SDS011;6424;48.520;11.228;2024-02-23T01:12:16;0.30;;;0.20;;
12719;SDS011;6424;48.520;11.228;2024-02-23T01:15:00;1.57;;;0.20;;
12719;SDS011;6424;48.520;11.228;2024-02-23T01:17:44;2.13;;;0.20;;
12719;SDS011;6424;48.520;11.228;2024-02-23T01:20:29;0.37;;;0.20;;
12719;SDS011;6424;48.520;11.228;2024-02-23T01:23:13;0.67;;;0.30;;
12719;SDS011;6424;48.520;11.228;2024-02-23T01:25:58;1.23;;;0.20;;
12719;SDS011;6424;48.520;11.228;2024-02-23T01:28:44;0.60;;;0.20;;
12719;SDS011;6424;48.520;11.228;2024-02-23T01:31:28;0.50;;;0.20;;
12719;SDS011;6424;48.520;11.228;2024-02-23T01:34:12;0.53;;;0.20;;
12719;SDS011;6424;48.520;11.228;2024-02-23T01:36:56;0.43;;;0.10;;
12719;SDS011;6424;48.520;11.228;2024-02-23T01:39:41;0.40;;;0.20;;
12719;SDS011;6424;48.520;11.228;2024-02-23T01:42:25;0.50;;;0.27;;
12719;SDS011;6424;48.520;11.228;2024-02-23T01:45:12;0.57;;;0.20;;
12719;SDS011;6424;48.520;11.228;2024-02-23T01:47:57;0.30;;;0.10;;
12719;SDS011;6424;48.520;11.228;2024-02-23T01:50:42;1.03;;;0.30;;
12719;SDS011;6424;48.520;11.228;2024-02-23T01:53:28;0.40;;;0.20;;
12719;SDS011;6424;48.520;11.228;2024-02-23T01:56:13;0.30;;;0.10;;
12719;SDS011;6424;48.520;11.228;2024-02-23T01:59:02;1.37;;;0.40;;
12719;SDS011;6424;48.520;11.228;2024-02-23T02:01:47;0.63;;;0.27;;
12719;SDS011;6424;48.520;11.228;2024-02-23T02:04:32;1.43;;;0.20;;
12719;SDS011;6424;48.520;11.228;2024-02-23T02:07:16;0.43;;;0.30;;
12719;SDS011;6424;48.520;11.228;2024-02-23T02:10:02;1.53;;;0.30;;
12719;SDS011;6424;48.520;11.228;2024-02-23T02:12:48;1.90;;;0.70;;
12719;SDS011;6424;48.520;11.228;2024-02-23T02:15:32;3.73;;;2.20;;
12719;SDS011;6424;48.520;11.228;2024-02-23T02:18:17;2.87;;;1.70;;
12719;SDS011;6424;48.520;11.228;2024-02-23T02:21:04;1.37;;;1.00;;
12719;SDS011;6424;48.520;11.228;2024-02-23T02:23:48;1.03;;;0.70;;
12719;SDS011;6424;48.520;11.228;2024-02-23T02:26:32;2.37;;;1.10;;
12719;SDS011;6424;48.520;11.228;2024-02-23T02:29:16;0.93;;;0.60;;
12719;SDS011;6424;48.520;11.228;2024-02-23T02:32:01;0.53;;;0.30;;
12719;SDS011;6424;48.520;11.228;2024-02-23T02:34:46;0.67;;;0.20;;
12719;SDS011;6424;48.520;11.228;2024-02-23T02:37:30;0.60;;;0.30;;
12719;SDS011;6424;48.520;11.228;2024-02-23T02:40:14;0.40;;;0.20;;
12719;SDS011;6424;48.520;11.228;2024-02-23T02:42:58;0.30;;;0.20;;
12719;SDS011;6424;48.520;11.228;2024-02-23T02:45:42;0.57;;;0.50;;
12719;SDS011;6424;48.520;11.228;2024-02-23T02:48:27;1.03;;;0.20;;
12719;SDS011;6424;48.520;11.228;2024-02-23T02:51:11;0.60;;;0.17;;
12719;SDS011;6424;48.520;11.228;2024-02-23T02:53:56;0.60;;;0.07;;
12719;SDS011;6424;48.520;11.228;2024-02-23T02:56:43;0.50;;;0.17;;
12719;SDS011;6424;48.520;11.228;2024-02-23T02:59:33;0.30;;;0.07;;
12719;SDS011;6424;48.520;11.228;2024-02-23T03:02:19;1.40;;;0.30;;
12719;SDS011;6424;48.520;11.228;2024-02-23T03:05:03;0.97;;;0.13;;
12719;SDS011;6424;48.520;11.228;2024-02-23T03:07:48;0.63;;;0.23;;
12719;SDS011;6424;48.520;11.228;2024-02-23T03:10:32;1.40;;;0.10;;
12719;SDS011;6424;48.520;11.228;2024-02-23T03:13:16;0.30;;;0.10;;
12719;SDS011;6424;48.520;11.228;2024-02-23T03:16:01;1.83;;;0.30;;
12719;SDS011;6424;48.520;11.228;2024-02-23T03:18:45;0.30;;;0.07;;
12719;SDS011;6424;48.520;11.228;2024-02-23T03:21:30;1.40;;;0.10;;
12719;SDS011;6424;48.520;11.228;2024-02-23T03:24:14;0.30;;;0.10;;
12719;SDS011;6424;48.520;11.228;2024-02-23T03:26:59;0.77;;;0.20;;
12719;SDS011;6424;48.520;11.228;2024-02-23T03:29:44;0.83;;;0.20;;
12719;SDS011;6424;48.520;11.228;2024-02-23T03:32:28;1.23;;;0.30;;
12719;SDS011;6424;48.520;11.228;2024-02-23T03:35:15;0.90;;;0.10;;
12719;SDS011;6424;48.520;11.228;2024-02-23T03:37:59;0.30;;;0.10;;
12719;SDS011;6424;48.520;11.228;2024-02-23T03:40:43;0.47;;;0.13;;
12719;SDS011;6424;48.520;11.228;2024-02-23T03:43:28;0.40;;;0.10;;
12719;SDS011;6424;48.520;11.228;2024-02-23T03:46:12;0.40;;;0.40;;
12719;SDS011;6424;48.520;11.228;2024-02-23T03:48:58;0.60;;;0.30;;
12719;SDS011;6424;48.520;11.228;2024-02-23T03:51:43;0.50;;;0.40;;
12719;SDS011;6424;48.520;11.228;2024-02-23T03:54:27;0.40;;;0.10;;
12719;SDS011;6424;48.520;11.228;2024-02-23T03:57:11;0.30;;;0.10;;
12719;SDS011;6424;48.520;11.228;2024-02-23T03:59:55;0.60;;;0.13;;
12719;SDS011;6424;48.520;11.228;2024-02-23T04:02:40;0.83;;;0.27;;
12719;SDS011;6424;48.520;11.228;2024-02-23T04:05:25;0.40;;;0.10;;
12719;SDS011;6424;48.520;11.228;2024-02-23T04:08:09;0.40;;;0.20;;
12719;SDS011;6424;48.520;11.228;2024-02-23T04:10:53;0.50;;;0.20;;
12719;SDS011;6424;48.520;11.228;2024-02-23T04:13:37;1.17;;;0.30;;
12719;SDS011;6424;48.520;11.228;2024-02-23T04:16:22;0.40;;;0.10;;
12719;SDS011;6424;48.520;11.228;2024-02-23T04:19:08;0.93;;;0.20;;
12719;SDS011;6424;48.520;11.228;2024-02-23T04:21:53;1.43;;;0.30;;
12719;SDS011;6424;48.520;11.228;2024-02-23T04:24:40;0.40;;;0.30;;
12719;SDS011;6424;48.520;11.228;2024-02-23T04:27:25;0.33;;;0.20;;
12719;SDS011;6424;48.520;11.228;2024-02-23T04:30:10;0.30;;;0.20;;
12719;SDS011;6424;48.520;11.228;2024-02-23T04:32:55;0.90;;;0.30;;
12719;SDS011;6424;48.520;11.228;2024-02-23T04:35:38;1.00;;;0.30;;
12719;SDS011;6424;48.520;11.228;2024-02-23T04:38:23;0.70;;;0.43;;
12719;SDS011;6424;48.520;11.228;2024-02-23T04:41:07;0.40;;;0.23;;
12719;SDS011;6424;48.520;11.228;2024-02-23T04:43:51;0.93;;;0.50;;
12719;SDS011;6424;48.520;11.228;2024-02-23T04:46:36;0.73;;;0.30;;
12719;SDS011;6424;48.520;11.228;2024-02-23T04:49:21;0.40;;;0.30;;
12719;SDS011;6424;48.520;11.228;2024-02-23T04:52:07;0.50;;;0.30;;
12719;SDS011;6424;48.520;11.228;2024-02-23T04:54:52;0.47;;;0.33;;
12719;SDS011;6424;48.520;11.228;2024-02-23T04:57:36;1.33;;;0.60;;
12719;SDS011;6424;48.520;11.228;2024-02-23T05:00:22;1.80;;;0.50;;
12719;SDS011;6424;48.520;11.228;2024-02-23T05:03:06;0.77;;;0.30;;
12719;SDS011;6424;48.520;11.228;2024-02-23T05:05:51;0.40;;;0.20;;
12719;SDS011;6424;48.520;11.228;2024-02-23T05:08:37;0.97;;;0.63;;
12719;SDS011;6424;48.520;11.228;2024-02-23T05:11:21;1.93;;;1.00;;
12719;SDS011;6424;48.520;11.228;2024-02-23T05:14:05;1.30;;;0.83;;
12719;SDS011;6424;48.520;11.228;2024-02-23T05:16:49;1.40;;;0.90;;
12719;SDS011;6424;48.520;11.228;2024-02-23T05:19:33;2.17;;;1.00;;
12719;SDS011;6424;48.520;11.228;2024-02-23T05:22:17;0.67;;;0.30;;
12719;SDS011;6424;48.520;11.228;2024-02-23T05:25:02;0.63;;;0.40;;
12719;SDS011;6424;48.520;11.228;2024-02-23T05:27:48;1.17;;;0.60;;
12719;SDS011;6424;48.520;11.228;2024-02-23T05:30:32;0.40;;;0.40;;
12719;SDS011;6424;48.520;11.228;2024-02-23T05:33:17;0.50;;;0.30;;
12719;SDS011;6424;48.520;11.228;2024-02-23T05:36:04;0.73;;;0.40;;
12719;SDS011;6424;48.520;11.228;2024-02-23T05:38:49;2.67;;;1.30;;
12719;SDS011;6424;48.520;11.228;2024-02-23T05:41:33;1.30;;;1.13;;
12719;SDS011;6424;48.520;11.228;2024-02-23T05:44:18;2.37;;;1.00;;
12719;SDS011;6424;48.520;11.228;2024-02-23T05:47:03;1.70;;;1.23;;
12719;SDS011;6424;48.520;11.228;2024-02-23T05:49:49;1.03;;;0.80;;
12719;SDS011;6424;48.520;11.228;2024-02-23T05:52:34;1.77;;;1.00;;
12719;SDS011;6424;48.520;11.228;2024-02-23T05:55:19;0.93;;;0.50;;
12719;SDS011;6424;48.520;11.228;2024-02-23T05:58:04;1.07;;;0.53;;
12719;SDS011;6424;48.520;11.228;2024-02-23T06:00:49;0.47;;;0.40;;
12719;SDS011;6424;48.520;11.228;2024-02-23T06:03:35;0.83;;;0.37;;
12719;SDS011;6424;48.520;11.228;2024-02-23T06:06:19;0.70;;;0.30;;
12719;SDS011;6424;48.520;11.228;2024-02-23T06:09:04;0.60;;;0.40;;
12719;SDS011;6424;48.520;11.228;2024-02-23T06:11:49;1.20;;;0.50;;
12719;SDS011;6424;48.520;11.228;2024-02-23T06:14:33;0.30;;;0.20;;
12719;SDS011;6424;48.520;11.228;2024-02-23T06:17:18;1.00;;;0.47;;
12719;SDS011;6424;48.520;11.228;2024-02-23T06:20:02;0.50;;;0.50;;
12719;SDS011;6424;48.520;11.228;2024-02-23T06:22:48;0.60;;;0.37;;
12719;SDS011;6424;48.520;11.228;2024-02-23T06:25:32;2.00;;;0.50;;
12719;SDS011;6424;48.520;11.228;2024-02-23T06:28:17;1.17;;;0.57;;
12719;SDS011;6424;48.520;11.228;2024-02-23T06:31:01;1.33;;;0.60;;
12719;SDS011;6424;48.520;11.228;2024-02-23T06:33:47;0.63;;;0.30;;
12719;SDS011;6424;48.520;11.228;2024-02-23T06:36:33;0.43;;;0.23;;
12719;SDS011;6424;48.520;11.228;2024-02-23T06:39:17;0.70;;;0.30;;
12719;SDS011;6424;48.520;11.228;2024-02-23T06:42:02;0.70;;;0.50;;
12719;SDS011;6424;48.520;11.228;2024-02-23T06:44:48;1.23;;;0.30;;
12719;SDS011;6424;48.520;11.228;2024-02-23T06:47:33;1.40;;;0.57;;
12719;SDS011;6424;48.520;11.228;2024-02-23T06:50:17;0.53;;;0.30;;
12719;SDS011;6424;48.520;11.228;2024-02-23T06:53:02;1.00;;;0.50;;
12719;SDS011;6424;48.520;11.228;2024-02-23T06:55:47;0.50;;;0.40;;
12719;SDS011;6424;48.520;11.228;2024-02-23T06:58:31;2.20;;;0.50;;
12719;SDS011;6424;48.520;11.228;2024-02-23T07:01:15;0.70;;;0.50;;
12719;SDS011;6424;48.520;11.228;2024-02-23T07:04:00;1.90;;;0.60;;
12719;SDS011;6424;48.520;11.228;2024-02-23T07:06:44;1.20;;;0.60;;
12719;SDS011;6424;48.520;11.228;2024-02-23T07:09:30;0.80;;;0.53;;
12719;SDS011;6424;48.520;11.228;2024-02-23T07:12:14;1.80;;;0.70;;
12719;SDS011;6424;48.520;11.228;2024-02-23T07:14:58;1.07;;;0.53;;
12719;SDS011;6424;48.520;11.228;2024-02-23T07:17:44;1.10;;;0.60;;
12719;SDS011;6424;48.520;11.228;2024-02-23T07:20:29;1.57;;;0.33;;
12719;SDS011;6424;48.520;11.228;2024-02-23T07:23:13;1.83;;;1.30;;
12719;SDS011;6424;48.520;11.228;2024-02-23T07:25:59;0.97;;;0.80;;
12719;SDS011;6424;48.520;11.228;2024-02-23T07:28:43;1.27;;;0.70;;
12719;SDS011;6424;48.520;11.228;2024-02-23T07:31:27;1.03;;;0.50;;
12719;SDS011;6424;48.520;11.228;2024-02-23T07:34:12;1.00;;;0.60;;
12719;SDS011;6424;48.520;11.228;2024-02-23T07:36:56;0.97;;;0.60;;
12719;SDS011;6424;48.520;11.228;2024-02-23T07:39:41;1.13;;;0.50;;
12719;SDS011;6424;48.520;11.228;2024-02-23T07:42:25;0.97;;;0.50;;
12719;SDS011;6424;48.520;11.228;2024-02-23T07:45:10;1.43;;;0.70;;
12719;SDS011;6424;48.520;11.228;2024-02-23T07:47:55;0.70;;;0.40;;
12719;SDS011;6424;48.520;11.228;2024-02-23T07:50:39;2.73;;;0.40;;
12719;SDS011;6424;48.520;11.228;2024-02-23T07:53:23;0.60;;;0.43;;
12719;SDS011;6424;48.520;11.228;2024-02-23T07:56:07;0.80;;;0.50;;
12719;SDS011;6424;48.520;11.228;2024-02-23T07:58:53;2.20;;;0.77;;
12719;SDS011;6424;48.520;11.228;2024-02-23T08:01:38;0.93;;;0.40;;
12719;SDS011;6424;48.520;11.228;2024-02-23T08:04:24;0.90;;;0.30;;
12719;SDS011;6424;48.520;11.228;2024-02-23T08:07:09;1.03;;;0.50;;
12719;SDS011;6424;48.520;11.228;2024-02-23T08:09:54;1.17;;;0.80;;
12719;SDS011;6424;48.520;11.228;2024-02-23T08:12:38;0.30;;;0.30;;
12719;SDS011;6424;48.520;11.228;2024-02-23T08:15:24;0.60;;;0.30;;
12719;SDS011;6424;48.520;11.228;2024-02-23T08:18:08;1.43;;;0.30;;
12719;SDS011;6424;48.520;11.228;2024-02-23T08:20:52;1.67;;;0.60;;
12719;SDS011;6424;48.520;11.228;2024-02-23T08:23:36;0.97;;;0.37;;
12719;SDS011;6424;48.520;11.228;2024-02-23T08:26:20;0.60;;;0.40;;
12719;SDS011;6424;48.520;11.228;2024-02-23T08:29:06;1.33;;;0.50;;
12719;SDS011;6424;48.520;11.228;2024-02-23T08:31:50;0.93;;;0.40;;
12719;SDS011;6424;48.520;11.228;2024-02-23T08:34:35;2.03;;;0.60;;
12719;SDS011;6424;48.520;11.228;2024-02-23T08:37:19;1.57;;;0.40;;
12719;SDS011;6424;48.520;11.228;2024-02-23T08:40:04;0.80;;;0.40;;
12719;SDS011;6424;48.520;11.228;2024-02-23T08:42:50;2.67;;;1.00;;
12719;SDS011;6424;48.520;11.228;2024-02-23T08:45:35;2.27;;;1.20;;
12719;SDS011;6424;48.520;11.228;2024-02-23T08:48:20;1.03;;;0.40;;
12719;SDS011;6424;48.520;11.228;2024-02-23T08:51:04;0.67;;;0.40;;
12719;SDS011;6424;48.520;11.228;2024-02-23T08:53:48;1.10;;;0.50;;
12719;SDS011;6424;48.520;11.228;2024-02-23T08:56:36;2.53;;;0.50;;
12719;SDS011;6424;48.520;11.228;2024-02-23T08:59:22;0.50;;;0.40;;
12719;SDS011;6424;48.520;11.228;2024-02-23T09:02:06;0.83;;;0.50;;
12719;SDS011;6424;48.520;11.228;2024-02-23T09:04:51;1.00;;;0.40;;
12719;SDS011;6424;48.520;11.228;2024-02-23T09:07:36;1.40;;;0.43;;
12719;SDS011;6424;48.520;11.228;2024-02-23T09:10:20;1.47;;;0.50;;
12719;SDS011;6424;48.520;11.228;2024-02-23T09:13:05;3.67;;;0.47;;
12719;SDS011;6424;48.520;11.228;2024-02-23T09:15:49;0.70;;;0.40;;
12719;SDS011;6424;48.520;11.228;2024-02-23T09:18:34;1.27;;;0.70;;
12719;SDS011;6424;48.520;11.228;2024-02-23T09:21:19;1.33;;;0.50;;
12719;SDS011;6424;48.520;11.228;2024-02-23T09:24:05;2.17;;;0.80;;
12719;SDS011;6424;48.520;11.228;2024-02-23T09:26:49;1.37;;;0.67;;
12719;SDS011;6424;48.520;11.228;2024-02-23T09:29:34;3.63;;;0.80;;
12719;SDS011;6424;48.520;11.228;2024-02-23T09:32:19;2.13;;;0.77;;
12719;SDS011;6424;48.520;11.228;2024-02-23T09:35:03;1.10;;;0.53;;
12719;SDS011;6424;48.520;11.228;2024-02-23T09:37:48;1.57;;;0.63;;
12719;SDS011;6424;48.520;11.228;2024-02-23T09:40:32;1.23;;;0.50;;
12719;SDS011;6424;48.520;11.228;2024-02-23T09:43:17;1.70;;;0.50;;
12719;SDS011;6424;48.520;11.228;2024-02-23T09:46:03;1.43;;;0.53;;
12719;SDS011;6424;48.520;11.228;2024-02-23T09:48:48;2.43;;;0.60;;
12719;SDS011;6424;48.520;11.228;2024-02-23T09:51:34;1.30;;;0.50;;
12719;SDS011;6424;48.520;11.228;2024-02-23T09:54:21;1.47;;;0.60;;
12719;SDS011;6424;48.520;11.228;2024-02-23T09:57:09;1.43;;;0.70;;
12719;SDS011;6424;48.520;11.228;2024-02-23T09:59:54;1.47;;;0.70;;
12719;SDS011;6424;48.520;11.228;2024-02-23T10:02:39;1.90;;;0.70;;
12719;SDS011;6424;48.520;11.228;2024-02-23T10:05:28;0.60;;;0.53;;
12719;SDS011;6424;48.520;11.228;2024-02-23T10:08:14;3.23;;;0.80;;
12719;SDS011;6424;48.520;11.228;2024-02-23T10:11:00;4.90;;;0.63;;
12719;SDS011;6424;48.520;11.228;2024-02-23T10:13:46;2.73;;;0.73;;
12719;SDS011;6424;48.520;11.228;2024-02-23T10:16:35;2.13;;;0.70;;
12719;SDS011;6424;48.520;11.228;2024-02-23T10:19:20;1.73;;;0.60;;
12719;SDS011;6424;48.520;11.228;2024-02-23T10:22:12;1.90;;;0.80;;
12719;SDS011;6424;48.520;11.228;2024-02-23T10:24:56;1.53;;;0.63;;
12719;SDS011;6424;48.520;11.228;2024-02-23T10:27:41;1.53;;;0.70;;
12719;SDS011;6424;48.520;11.228;2024-02-23T10:30:28;2.60;;;0.70;;
12719;SDS011;6424;48.520;11.228;2024-02-23T10:33:12;1.23;;;0.50;;
12719;SDS011;6424;48.520;11.228;2024-02-23T10:35:58;2.07;;;0.77;;
12719;SDS011;6424;48.520;11.228;2024-02-23T10:38:45;1.30;;;0.50;;
12719;SDS011;6424;48.520;11.228;2024-02-23T10:41:34;3.40;;;0.60;;
12719;SDS011;6424;48.520;11.228;2024-02-23T10:44:20;2.27;;;0.80;;
12719;SDS011;6424;48.520;11.228;2024-02-23T10:47:05;4.13;;;0.90;;
12719;SDS011;6424;48.520;11.228;2024-02-23T10:49:51;1.20;;;0.60;;
12719;SDS011;6424;48.520;11.228;2024-02-23T10:52:36;1.07;;;0.60;;
12719;SDS011;6424;48.520;11.228;2024-02-23T10:55:22;2.60;;;0.90;;
12719;SDS011;6424;48.520;11.228;2024-02-23T10:58:08;2.00;;;0.80;;
12719;SDS011;6424;48.520;11.228;2024-02-23T11:00:59;2.50;;;0.60;;
12719;SDS011;6424;48.520;11.228;2024-02-23T11:03:45;1.40;;;0.70;;
12719;SDS011;6424;48.520;11.228;2024-02-23T11:06:33;1.73;;;0.60;;
12719;SDS011;6424;48.520;11.228;2024-02-23T11:09:21;4.87;;;0.50;;
12719;SDS011;6424;48.520;11.228;2024-02-23T11:12:06;1.70;;;0.87;;
12719;SDS011;6424;48.520;11.228;2024-02-23T11:14:51;5.70;;;1.00;;
12719;SDS011;6424;48.520;11.228;2024-02-23T11:17:39;1.30;;;0.87;;
12719;SDS011;6424;48.520;11.228;2024-02-23T11:20:24;2.50;;;0.80;;
12719;SDS011;6424;48.520;11.228;2024-02-23T11:23:18;2.97;;;0.70;;
12719;SDS011;6424;48.520;11.228;2024-02-23T11:28:50;1.40;;;0.80;;
12719;SDS011;6424;48.520;11.228;2024-02-23T11:31:43;1.13;;;0.70;;
12719;SDS011;6424;48.520;11.228;2024-02-23T11:34:29;3.33;;;0.80;;
12719;SDS011;6424;48.520;11.228;2024-02-23T11:37:14;2.60;;;0.77;;
12719;SDS011;6424;48.520;11.228;2024-02-23T11:40:02;2.27;;;0.60;;
12719;SDS011;6424;48.520;11.228;2024-02-23T11:42:48;3.30;;;2.07;;
12719;SDS011;6424;48.520;11.228;2024-02-23T11:45:34;15.27;;;8.07;;
12719;SDS011;6424;48.520;11.228;2024-02-23T11:48:18;4.23;;;2.97;;
12719;SDS011;6424;48.520;11.228;2024-02-23T11:51:03;1.80;;;0.87;;
12719;SDS011;6424;48.520;11.228;2024-02-23T11:53:47;2.63;;;1.30;;
12719;SDS011;6424;48.520;11.228;2024-02-23T11:56:33;2.13;;;0.83;;
12719;SDS011;6424;48.520;11.228;2024-02-23T11:59:17;1.37;;;0.80;;
12719;SDS011;6424;48.520;11.228;2024-02-23T12:02:05;2.83;;;0.90;;
12719;SDS011;6424;48.520;11.228;2024-02-23T12:04:51;2.90;;;0.77;;
12719;SDS011;6424;48.520;11.228;2024-02-23T12:07:36;1.87;;;0.70;;
12719;SDS011;6424;48.520;11.228;2024-02-23T12:10:20;2.67;;;1.03;;
12719;SDS011;6424;48.520;11.228;2024-02-23T12:13:05;1.90;;;1.17;;
12719;SDS011;6424;48.520;11.228;2024-02-23T12:15:52;2.03;;;0.73;;
12719;SDS011;6424;48.520;11.228;2024-02-23T12:18:37;3.40;;;0.50;;
12719;SDS011;6424;48.520;11.228;2024-02-23T12:21:22;2.00;;;0.97;;
12719;SDS011;6424;48.520;11.228;2024-02-23T12:24:08;1.63;;;0.60;;
12719;SDS011;6424;48.520;11.228;2024-02-23T12:26:54;3.17;;;0.90;;
12719;SDS011;6424;48.520;11.228;2024-02-23T12:29:38;4.00;;;1.07;;
12719;SDS011;6424;48.520;11.228;2024-02-23T12:32:22;2.70;;;0.90;;
12719;SDS011;6424;48.520;11.228;2024-02-23T12:35:07;2.83;;;0.93;;
12719;SDS011;6424;48.520;11.228;2024-02-23T12:37:53;1.40;;;1.00;;
12719;SDS011;6424;48.520;11.228;2024-02-23T12:40:38;4.67;;;2.60;;
12719;SDS011;6424;48.520;11.228;2024-02-23T12:43:22;2.87;;;1.30;;
12719;SDS011;6424;48.520;11.228;2024-02-23T12:46:10;1.80;;;0.90;;
12719;SDS011;6424;48.520;11.228;2024-02-23T12:48:57;2.80;;;0.80;;
12719;SDS011;6424;48.520;11.228;2024-02-23T12:51:42;2.17;;;0.77;;
12719;SDS011;6424;48.520;11.228;2024-02-23T12:54:27;1.77;;;0.70;;
12719;SDS011;6424;48.520;11.228;2024-02-23T12:57:11;1.87;;;0.80;;
12719;SDS011;6424;48.520;11.228;2024-02-23T12:59:55;1.30;;;0.53;;
12719;SDS011;6424;48.520;11.228;2024-02-23T13:02:39;1.63;;;0.80;;
12719;SDS011;6424;48.520;11.228;2024-02-23T13:05:23;2.50;;;1.00;;
12719;SDS011;6424;48.520;11.228;2024-02-23T13:08:07;2.20;;;0.73;;
12719;SDS011;6424;48.520;11.228;2024-02-23T13:10:53;1.47;;;0.50;;
12719;SDS011;6424;48.520;11.228;2024-02-23T13:13:38;4.67;;;0.60;;
12719;SDS011;6424;48.520;11.228;2024-02-23T13:16:22;0.93;;;0.50;;
12719;SDS011;6424;48.520;11.228;2024-02-23T13:19:06;1.00;;;0.50;;
12719;SDS011;6424;48.520;11.228;2024-02-23T13:21:52;1.20;;;0.67;;
12719;SDS011;6424;48.520;11.228;2024-02-23T13:24:37;3.33;;;1.33;;
12719;SDS011;6424;48.520;11.228;2024-02-23T13:27:23;3.07;;;0.90;;
12719;SDS011;6424;48.520;11.228;2024-02-23T13:30:08;3.20;;;0.90;;
12719;SDS011;6424;48.520;11.228;2024-02-23T13:32:53;2.33;;;0.93;;
12719;SDS011;6424;48.520;11.228;2024-02-23T13:35:37;1.80;;;0.90;;
12719;SDS011;6424;48.520;11.228;2024-02-23T13:38:22;1.57;;;0.50;;
12719;SDS011;6424;48.520;11.228;2024-02-23T13:41:07;0.40;;;0.40;;
12719;SDS011;6424;48.520;11.228;2024-02-23T13:43:52;1.90;;;0.87;;
12719;SDS011;6424;48.520;11.228;2024-02-23T13:46:40;4.80;;;2.73;;
12719;SDS011;6424;48.520;11.228;2024-02-23T13:49:24;1.10;;;0.63;;
12719;SDS011;6424;48.520;11.228;2024-02-23T13:52:09;0.43;;;0.33;;
12719;SDS011;6424;48.520;11.228;2024-02-23T13:54:54;0.80;;;0.60;;
12719;SDS011;6424;48.520;11.228;2024-02-23T13:57:38;0.50;;;0.50;;
12719;SDS011;6424;48.520;11.228;2024-02-23T14:00:23;1.63;;;0.40;;
12719;SDS011;6424;48.520;11.228;2024-02-23T14:03:08;0.93;;;0.70;;
12719;SDS011;6424;48.520;11.228;2024-02-23T14:05:54;1.87;;;0.60;;
12719;SDS011;6424;48.520;11.228;2024-02-23T14:08:38;2.27;;;0.63;;
12719;SDS011;6424;48.520;11.228;2024-02-23T14:11:22;1.13;;;0.83;;
12719;SDS011;6424;48.520;11.228;2024-02-23T14:14:07;0.70;;;0.43;;
12719;SDS011;6424;48.520;11.228;2024-02-23T14:16:52;0.53;;;0.50;;
12719;SDS011;6424;48.520;11.228;2024-02-23T14:19:36;0.90;;;0.70;;
12719;SDS011;6424;48.520;11.228;2024-02-23T14:22:21;3.73;;;2.07;;
12719;SDS011;6424;48.520;11.228;2024-02-23T14:25:05;2.57;;;1.47;;
12719;SDS011;6424;48.520;11.228;2024-02-23T14:27:51;2.73;;;0.80;;
12719;SDS011;6424;48.520;11.228;2024-02-23T14:30:35;1.30;;;0.50;;
12719;SDS011;6424;48.520;11.228;2024-02-23T14:33:19;1.40;;;0.40;;
12719;SDS011;6424;48.520;11.228;2024-02-23T14:36:04;1.03;;;0.50;;
12719;SDS011;6424;48.520;11.228;2024-02-23T14:38:48;1.47;;;0.60;;
12719;SDS011;6424;48.520;11.228;2024-02-23T14:41:33;0.50;;;0.50;;
12719;SDS011;6424;48.520;11.228;2024-02-23T14:44:17;0.97;;;0.30;;
12719;SDS011;6424;48.520;11.228;2024-02-23T14:47:02;1.00;;;0.70;;
12719;SDS011;6424;48.520;11.228;2024-02-23T14:49:47;5.73;;;4.00;;
12719;SDS011;6424;48.520;11.228;2024-02-23T14:52:31;0.80;;;0.60;;
12719;SDS011;6424;48.520;11.228;2024-02-23T14:55:15;1.13;;;0.60;;
12719;SDS011;6424;48.520;11.228;2024-02-23T14:57:59;1.67;;;1.37;;
12719;SDS011;6424;48.520;11.228;2024-02-23T15:00:44;5.87;;;3.27;;
12719;SDS011;6424;48.520;11.228;2024-02-23T15:03:28;7.03;;;4.50;;
12719;SDS011;6424;48.520;11.228;2024-02-23T15:06:13;6.30;;;3.70;;
12719;SDS011;6424;48.520;11.228;2024-02-23T15:08:57;1.40;;;1.30;;
12719;SDS011;6424;48.520;11.228;2024-02-23T15:11:41;0.80;;;0.60;;
12719;SDS011;6424;48.520;11.228;2024-02-23T15:14:25;2.60;;;1.37;;
12719;SDS011;6424;48.520;11.228;2024-02-23T15:17:10;2.00;;;0.70;;
12719;SDS011;6424;48.520;11.228;2024-02-23T15:19:54;1.20;;;1.00;;
12719;SDS011;6424;48.520;11.228;2024-02-23T15:22:38;1.53;;;0.40;;
12719;SDS011;6424;48.520;11.228;2024-02-23T15:25:26;0.47;;;0.40;;
12719;SDS011;6424;48.520;11.228;2024-02-23T15:28:11;0.80;;;0.70;;
12719;SDS011;6424;48.520;11.228;2024-02-23T15:30:55;0.70;;;0.50;;
12719;SDS011;6424;48.520;11.228;2024-02-23T15:33:40;2.90;;;1.43;;
12719;SDS011;6424;48.520;11.228;2024-02-23T15:36:24;0.70;;;0.70;;
12719;SDS011;6424;48.520;11.228;2024-02-23T15:39:08;1.63;;;0.90;;
12719;SDS011;6424;48.520;11.228;2024-02-23T15:41:53;2.83;;;2.03;;
12719;SDS011;6424;48.520;11.228;2024-02-23T15:44:37;5.00;;;3.50;;
12719;SDS011;6424;48.520;11.228;2024-02-23T15:47:22;2.87;;;1.70;;
12719;SDS011;6424;48.520;11.228;2024-02-23T15:50:06;0.90;;;0.63;;
12719;SDS011;6424;48.520;11.228;2024-02-23T15:52:51;1.87;;;1.60;;
12719;SDS011;6424;48.520;11.228;2024-02-23T15:55:36;2.47;;;1.57;;
12719;SDS011;6424;48.520;11.228;2024-02-23T15:58:20;1.30;;;1.00;;
12719;SDS011;6424;48.520;11.228;2024-02-23T16:01:05;1.60;;;1.50;;
12719;SDS011;6424;48.520;11.228;2024-02-23T16:03:49;1.40;;;1.30;;
12719;SDS011;6424;48.520;11.228;2024-02-23T16:06:33;1.30;;;1.03;;
12719;SDS011;6424;48.520;11.228;2024-02-23T16:09:18;2.20;;;1.03;;
12719;SDS011;6424;48.520;11.228;2024-02-23T16:12:02;3.13;;;2.33;;
12719;SDS011;6424;48.520;11.228;2024-02-23T16:14:48;2.13;;;1.83;;
12719;SDS011;6424;48.520;11.228;2024-02-23T16:17:36;2.60;;;2.10;;
12719;SDS011;6424;48.520;11.228;2024-02-23T16:20:20;3.53;;;3.23;;
12719;SDS011;6424;48.520;11.228;2024-02-23T16:23:05;3.97;;;3.43;;
12719;SDS011;6424;48.520;11.228;2024-02-23T16:25:50;2.50;;;2.30;;
12719;SDS011;6424;48.520;11.228;2024-02-23T16:28:35;2.53;;;2.33;;
12719;SDS011;6424;48.520;11.228;2024-02-23T16:31:19;2.20;;;2.00;;
12719;SDS011;6424;48.520;11.228;2024-02-23T16:34:03;1.40;;;1.10;;
12719;SDS011;6424;48.520;11.228;2024-02-23T16:36:48;1.93;;;1.83;;